sensor_id;sensor_type;location;lat;lon;timestamp;P1;durP1;ratioP1;P2;durP2;ratioP2
10201;SDS011;5143;42.584;23.164;2023-07-30T00:00:48;3.70;;;2.33;;
10201;SDS011;5143;42.584;23.164;2023-07-30T00:03:15;2.23;;;2.03;;
10201;SDS011;5143;42.584;23.164;2023-07-30T00:05:42;3.27;;;2.10;;
10201;SDS011;5143;42.584;23.164;2023-07-30T00:08:09;6.40;;;2.13;;
10201;SDS011;5143;42.584;23.164;2023-07-30T00:10:36;4.17;;;2.00;;
10201;SDS011;5143;42.584;23.164;2023-07-30T00:13:02;2.53;;;1.97;;
10201;SDS011;5143;42.584;23.164;2023-07-30T00:15:30;2.93;;;2.10;;
10201;SDS011;5143;42.584;23.164;2023-07-30T00:17:58;4.30;;;2.03;;
10201;SDS011;5143;42.584;23.164;2023-07-30T00:20:25;3.97;;;1.90;;
10201;SDS011;5143;42.584;23.164;2023-07-30T00:22:52;2.70;;;1.77;;
10201;SDS011;5143;42.584;23.164;2023-07-30T00:25:19;3.73;;;2.13;;
10201;SDS011;5143;42.584;23.164;2023-07-30T00:27:45;3.43;;;2.20;;
10201;SDS011;5143;42.584;23.164;2023-07-30T00:30:12;2.67;;;1.90;;
10201;SDS011;5143;42.584;23.164;2023-07-30T00:32:40;2.37;;;1.93;;
10201;SDS011;5143;42.584;23.164;2023-07-30T00:35:08;2.80;;;2.10;;
10201;SDS011;5143;42.584;23.164;2023-07-30T00:37:35;3.37;;;2.20;;
10201;SDS011;5143;42.584;23.164;2023-07-30T00:40:02;2.73;;;2.33;;
10201;SDS011;5143;42.584;23.164;2023-07-30T00:42:29;3.03;;;1.90;;
10201;SDS011;5143;42.584;23.164;2023-07-30T00:44:56;3.30;;;2.00;;
10201;SDS011;5143;42.584;23.164;2023-07-30T00:47:22;3.40;;;2.07;;
10201;SDS011;5143;42.584;23.164;2023-07-30T00:49:51;2.20;;;1.90;;
10201;SDS011;5143;42.584;23.164;2023-07-30T00:52:18;2.10;;;1.80;;
10201;SDS011;5143;42.584;23.164;2023-07-30T00:54:46;3.00;;;1.70;;
10201;SDS011;5143;42.584;23.164;2023-07-30T00:57:14;2.07;;;1.90;;
10201;SDS011;5143;42.584;23.164;2023-07-30T00:59:41;3.17;;;2.27;;
10201;SDS011;5143;42.584;23.164;2023-07-30T01:02:08;2.30;;;1.80;;
10201;SDS011;5143;42.584;23.164;2023-07-30T01:04:35;7.13;;;2.10;;
10201;SDS011;5143;42.584;23.164;2023-07-30T01:07:05;4.03;;;2.20;;
10201;SDS011;5143;42.584;23.164;2023-07-30T01:09:33;2.80;;;1.93;;
10201;SDS011;5143;42.584;23.164;2023-07-30T01:12:00;3.63;;;2.07;;
10201;SDS011;5143;42.584;23.164;2023-07-30T01:14:29;2.40;;;1.90;;
10201;SDS011;5143;42.584;23.164;2023-07-30T01:16:57;3.90;;;2.10;;
10201;SDS011;5143;42.584;23.164;2023-07-30T01:19:24;6.50;;;2.20;;
10201;SDS011;5143;42.584;23.164;2023-07-30T01:21:52;2.93;;;2.00;;
10201;SDS011;5143;42.584;23.164;2023-07-30T01:24:19;4.27;;;2.33;;
10201;SDS011;5143;42.584;23.164;2023-07-30T01:26:46;8.23;;;2.20;;
10201;SDS011;5143;42.584;23.164;2023-07-30T01:29:19;3.43;;;2.00;;
10201;SDS011;5143;42.584;23.164;2023-07-30T01:31:49;2.60;;;1.80;;
10201;SDS011;5143;42.584;23.164;2023-07-30T01:34:21;3.10;;;1.97;;
10201;SDS011;5143;42.584;23.164;2023-07-30T01:36:51;2.50;;;2.20;;
10201;SDS011;5143;42.584;23.164;2023-07-30T01:39:19;2.73;;;2.00;;
10201;SDS011;5143;42.584;23.164;2023-07-30T01:41:46;3.83;;;2.07;;
10201;SDS011;5143;42.584;23.164;2023-07-30T01:44:13;2.60;;;2.10;;
10201;SDS011;5143;42.584;23.164;2023-07-30T01:46:40;2.87;;;2.43;;
10201;SDS011;5143;42.584;23.164;2023-07-30T01:49:06;3.20;;;2.20;;
10201;SDS011;5143;42.584;23.164;2023-07-30T01:51:33;2.23;;;2.03;;
10201;SDS011;5143;42.584;23.164;2023-07-30T01:54:01;2.63;;;2.10;;
10201;SDS011;5143;42.584;23.164;2023-07-30T01:56:28;7.90;;;2.00;;
10201;SDS011;5143;42.584;23.164;2023-07-30T01:58:55;3.27;;;2.60;;
10201;SDS011;5143;42.584;23.164;2023-07-30T02:01:21;2.30;;;2.10;;
10201;SDS011;5143;42.584;23.164;2023-07-30T02:03:48;2.80;;;2.10;;
10201;SDS011;5143;42.584;23.164;2023-07-30T02:06:15;2.77;;;2.30;;
10201;SDS011;5143;42.584;23.164;2023-07-30T02:08:42;2.87;;;2.10;;
10201;SDS011;5143;42.584;23.164;2023-07-30T02:11:10;7.90;;;2.33;;
10201;SDS011;5143;42.584;23.164;2023-07-30T02:13:37;3.10;;;2.03;;
10201;SDS011;5143;42.584;23.164;2023-07-30T02:16:04;4.73;;;2.20;;
10201;SDS011;5143;42.584;23.164;2023-07-30T02:18:30;2.30;;;2.10;;
10201;SDS011;5143;42.584;23.164;2023-07-30T02:20:57;2.97;;;2.17;;
10201;SDS011;5143;42.584;23.164;2023-07-30T02:23:24;2.63;;;2.10;;
10201;SDS011;5143;42.584;23.164;2023-07-30T02:25:50;2.87;;;2.17;;
10201;SDS011;5143;42.584;23.164;2023-07-30T02:28:18;3.23;;;2.47;;
10201;SDS011;5143;42.584;23.164;2023-07-30T02:30:45;2.33;;;2.10;;
10201;SDS011;5143;42.584;23.164;2023-07-30T02:33:12;2.77;;;2.20;;
10201;SDS011;5143;42.584;23.164;2023-07-30T02:35:39;4.67;;;2.27;;
10201;SDS011;5143;42.584;23.164;2023-07-30T02:38:06;2.43;;;2.23;;
10201;SDS011;5143;42.584;23.164;2023-07-30T02:40:32;2.50;;;2.20;;
10201;SDS011;5143;42.584;23.164;2023-07-30T02:42:59;4.83;;;2.00;;
10201;SDS011;5143;42.584;23.164;2023-07-30T02:45:27;7.37;;;2.30;;
10201;SDS011;5143;42.584;23.164;2023-07-30T02:47:54;4.30;;;2.60;;
10201;SDS011;5143;42.584;23.164;2023-07-30T02:50:21;3.70;;;2.53;;
10201;SDS011;5143;42.584;23.164;2023-07-30T02:52:47;3.17;;;2.63;;
10201;SDS011;5143;42.584;23.164;2023-07-30T02:55:14;3.10;;;2.20;;
10201;SDS011;5143;42.584;23.164;2023-07-30T02:57:41;2.90;;;2.60;;
10201;SDS011;5143;42.584;23.164;2023-07-30T03:00:08;3.27;;;2.30;;
10201;SDS011;5143;42.584;23.164;2023-07-30T03:02:37;3.00;;;2.33;;
10201;SDS011;5143;42.584;23.164;2023-07-30T03:05:04;3.97;;;2.30;;
10201;SDS011;5143;42.584;23.164;2023-07-30T03:07:31;2.67;;;2.10;;
10201;SDS011;5143;42.584;23.164;2023-07-30T03:09:58;9.83;;;2.60;;
10201;SDS011;5143;42.584;23.164;2023-07-30T03:12:24;4.27;;;2.70;;
10201;SDS011;5143;42.584;23.164;2023-07-30T03:14:51;4.43;;;2.27;;
10201;SDS011;5143;42.584;23.164;2023-07-30T03:17:18;3.67;;;2.63;;
10201;SDS011;5143;42.584;23.164;2023-07-30T03:19:46;3.47;;;2.37;;
10201;SDS011;5143;42.584;23.164;2023-07-30T03:22:13;3.00;;;2.47;;
10201;SDS011;5143;42.584;23.164;2023-07-30T03:24:39;8.27;;;2.63;;
10201;SDS011;5143;42.584;23.164;2023-07-30T03:27:06;8.13;;;2.83;;
10201;SDS011;5143;42.584;23.164;2023-07-30T03:29:33;4.00;;;2.30;;
10201;SDS011;5143;42.584;23.164;2023-07-30T03:32:00;7.93;;;2.47;;
10201;SDS011;5143;42.584;23.164;2023-07-30T03:34:27;4.97;;;2.50;;
10201;SDS011;5143;42.584;23.164;2023-07-30T03:36:55;9.17;;;3.37;;
10201;SDS011;5143;42.584;23.164;2023-07-30T03:39:21;9.90;;;2.70;;
10201;SDS011;5143;42.584;23.164;2023-07-30T03:41:48;9.20;;;2.40;;
10201;SDS011;5143;42.584;23.164;2023-07-30T03:44:15;3.63;;;2.70;;
10201;SDS011;5143;42.584;23.164;2023-07-30T03:46:42;3.70;;;2.40;;
10201;SDS011;5143;42.584;23.164;2023-07-30T03:49:10;4.27;;;2.47;;
10201;SDS011;5143;42.584;23.164;2023-07-30T03:51:36;7.97;;;2.83;;
10201;SDS011;5143;42.584;23.164;2023-07-30T03:54:05;8.67;;;2.83;;
10201;SDS011;5143;42.584;23.164;2023-07-30T03:56:32;4.60;;;2.83;;
10201;SDS011;5143;42.584;23.164;2023-07-30T03:58:58;4.73;;;2.60;;
10201;SDS011;5143;42.584;23.164;2023-07-30T04:01:25;8.83;;;3.07;;
10201;SDS011;5143;42.584;23.164;2023-07-30T04:03:52;3.13;;;2.37;;
10201;SDS011;5143;42.584;23.164;2023-07-30T04:06:19;10.77;;;2.73;;
10201;SDS011;5143;42.584;23.164;2023-07-30T04:08:46;10.40;;;3.03;;
10201;SDS011;5143;42.584;23.164;2023-07-30T04:11:14;5.13;;;2.10;;
10201;SDS011;5143;42.584;23.164;2023-07-30T04:13:41;2.83;;;2.20;;
10201;SDS011;5143;42.584;23.164;2023-07-30T04:16:08;4.07;;;2.33;;
10201;SDS011;5143;42.584;23.164;2023-07-30T04:18:35;8.73;;;2.40;;
10201;SDS011;5143;42.584;23.164;2023-07-30T04:21:01;10.00;;;2.60;;
10201;SDS011;5143;42.584;23.164;2023-07-30T04:23:28;7.23;;;2.50;;
10201;SDS011;5143;42.584;23.164;2023-07-30T04:25:55;6.03;;;2.40;;
10201;SDS011;5143;42.584;23.164;2023-07-30T04:28:23;12.53;;;2.93;;
10201;SDS011;5143;42.584;23.164;2023-07-30T04:30:50;5.23;;;2.53;;
10201;SDS011;5143;42.584;23.164;2023-07-30T04:33:17;6.63;;;2.60;;
10201;SDS011;5143;42.584;23.164;2023-07-30T04:35:44;8.73;;;2.67;;
10201;SDS011;5143;42.584;23.164;2023-07-30T04:38:10;7.97;;;2.60;;
10201;SDS011;5143;42.584;23.164;2023-07-30T04:40:38;5.50;;;2.37;;
10201;SDS011;5143;42.584;23.164;2023-07-30T04:43:05;7.47;;;2.23;;
10201;SDS011;5143;42.584;23.164;2023-07-30T04:45:33;6.03;;;2.40;;
10201;SDS011;5143;42.584;23.164;2023-07-30T04:48:00;4.20;;;2.40;;
10201;SDS011;5143;42.584;23.164;2023-07-30T04:50:26;4.87;;;2.00;;
10201;SDS011;5143;42.584;23.164;2023-07-30T04:52:54;6.70;;;1.90;;
10201;SDS011;5143;42.584;23.164;2023-07-30T04:55:20;6.43;;;2.37;;
10201;SDS011;5143;42.584;23.164;2023-07-30T04:57:47;5.35;;;1.98;;
10201;SDS011;5143;42.584;23.164;2023-07-30T05:00:14;5.07;;;1.48;;
10201;SDS011;5143;42.584;23.164;2023-07-30T05:02:42;5.00;;;1.67;;
10201;SDS011;5143;42.584;23.164;2023-07-30T05:05:08;5.45;;;1.60;;
10201;SDS011;5143;42.584;23.164;2023-07-30T05:07:35;5.63;;;2.00;;
10201;SDS011;5143;42.584;23.164;2023-07-30T05:10:02;3.50;;;1.50;;
10201;SDS011;5143;42.584;23.164;2023-07-30T05:12:31;3.28;;;1.58;;
10201;SDS011;5143;42.584;23.164;2023-07-30T05:14:58;5.20;;;1.80;;
10201;SDS011;5143;42.584;23.164;2023-07-30T05:17:25;2.17;;;1.20;;
10201;SDS011;5143;42.584;23.164;2023-07-30T05:19:53;3.30;;;1.55;;
10201;SDS011;5143;42.584;23.164;2023-07-30T05:22:19;4.88;;;1.67;;
10201;SDS011;5143;42.584;23.164;2023-07-30T05:24:46;6.65;;;1.73;;
10201;SDS011;5143;42.584;23.164;2023-07-30T05:27:13;4.13;;;1.40;;
10201;SDS011;5143;42.584;23.164;2023-07-30T05:29:40;2.13;;;1.30;;
10201;SDS011;5143;42.584;23.164;2023-07-30T05:32:07;3.90;;;1.70;;
10201;SDS011;5143;42.584;23.164;2023-07-30T05:34:34;2.85;;;1.45;;
10201;SDS011;5143;42.584;23.164;2023-07-30T05:37:03;2.75;;;1.60;;
10201;SDS011;5143;42.584;23.164;2023-07-30T05:39:29;4.60;;;1.25;;
10201;SDS011;5143;42.584;23.164;2023-07-30T05:41:56;2.50;;;1.30;;
10201;SDS011;5143;42.584;23.164;2023-07-30T05:44:23;4.18;;;1.58;;
10201;SDS011;5143;42.584;23.164;2023-07-30T05:46:50;2.05;;;1.33;;
10201;SDS011;5143;42.584;23.164;2023-07-30T05:49:16;2.85;;;1.75;;
10201;SDS011;5143;42.584;23.164;2023-07-30T05:51:43;4.32;;;1.55;;
10201;SDS011;5143;42.584;23.164;2023-07-30T05:54:12;4.05;;;1.30;;
10201;SDS011;5143;42.584;23.164;2023-07-30T05:56:39;5.28;;;1.40;;
10201;SDS011;5143;42.584;23.164;2023-07-30T05:59:06;3.20;;;1.33;;
10201;SDS011;5143;42.584;23.164;2023-07-30T06:01:32;5.57;;;1.65;;
10201;SDS011;5143;42.584;23.164;2023-07-30T06:03:59;2.20;;;1.42;;
10201;SDS011;5143;42.584;23.164;2023-07-30T06:06:26;6.15;;;1.30;;
10201;SDS011;5143;42.584;23.164;2023-07-30T06:08:53;3.55;;;1.13;;
10201;SDS011;5143;42.584;23.164;2023-07-30T06:11:21;8.65;;;1.70;;
10201;SDS011;5143;42.584;23.164;2023-07-30T06:13:48;2.72;;;1.40;;
10201;SDS011;5143;42.584;23.164;2023-07-30T06:16:16;2.15;;;1.40;;
10201;SDS011;5143;42.584;23.164;2023-07-30T06:18:44;2.28;;;1.33;;
10201;SDS011;5143;42.584;23.164;2023-07-30T06:21:11;4.25;;;1.60;;
10201;SDS011;5143;42.584;23.164;2023-07-30T06:23:37;2.35;;;1.50;;
10201;SDS011;5143;42.584;23.164;2023-07-30T06:26:04;3.60;;;1.75;;
10201;SDS011;5143;42.584;23.164;2023-07-30T06:28:32;2.03;;;1.13;;
10201;SDS011;5143;42.584;23.164;2023-07-30T06:30:59;3.88;;;1.55;;
10201;SDS011;5143;42.584;23.164;2023-07-30T06:33:26;5.63;;;1.80;;
10201;SDS011;5143;42.584;23.164;2023-07-30T06:35:53;2.83;;;1.42;;
10201;SDS011;5143;42.584;23.164;2023-07-30T06:38:19;2.33;;;1.40;;
10201;SDS011;5143;42.584;23.164;2023-07-30T06:40:46;5.32;;;1.42;;
10201;SDS011;5143;42.584;23.164;2023-07-30T06:43:13;2.17;;;1.55;;
10201;SDS011;5143;42.584;23.164;2023-07-30T06:45:41;4.68;;;1.55;;
10201;SDS011;5143;42.584;23.164;2023-07-30T06:48:08;2.00;;;1.55;;
10201;SDS011;5143;42.584;23.164;2023-07-30T06:50:34;13.27;;;2.47;;
10201;SDS011;5143;42.584;23.164;2023-07-30T06:53:01;3.17;;;1.58;;
10201;SDS011;5143;42.584;23.164;2023-07-30T06:55:28;3.72;;;1.85;;
10201;SDS011;5143;42.584;23.164;2023-07-30T06:57:54;3.28;;;1.45;;
10201;SDS011;5143;42.584;23.164;2023-07-30T07:00:21;2.42;;;1.70;;
10201;SDS011;5143;42.584;23.164;2023-07-30T07:02:50;2.95;;;1.20;;
10201;SDS011;5143;42.584;23.164;2023-07-30T07:05:16;5.10;;;1.60;;
10201;SDS011;5143;42.584;23.164;2023-07-30T07:07:44;6.78;;;1.75;;
10201;SDS011;5143;42.584;23.164;2023-07-30T07:10:11;4.57;;;1.40;;
10201;SDS011;5143;42.584;23.164;2023-07-30T07:12:38;2.53;;;1.40;;
10201;SDS011;5143;42.584;23.164;2023-07-30T07:15:06;2.75;;;1.30;;
10201;SDS011;5143;42.584;23.164;2023-07-30T07:17:33;10.10;;;1.80;;
10201;SDS011;5143;42.584;23.164;2023-07-30T07:20:02;1.95;;;1.20;;
10201;SDS011;5143;42.584;23.164;2023-07-30T07:22:30;4.20;;;1.75;;
10201;SDS011;5143;42.584;23.164;2023-07-30T07:24:57;4.20;;;1.30;;
10201;SDS011;5143;42.584;23.164;2023-07-30T07:27:23;7.90;;;1.38;;
10201;SDS011;5143;42.584;23.164;2023-07-30T07:29:50;1.60;;;1.20;;
10201;SDS011;5143;42.584;23.164;2023-07-30T07:32:17;5.03;;;1.45;;
10201;SDS011;5143;42.584;23.164;2023-07-30T07:34:45;2.65;;;1.42;;
10201;SDS011;5143;42.584;23.164;2023-07-30T07:37:14;2.80;;;1.33;;
10201;SDS011;5143;42.584;23.164;2023-07-30T07:39:43;3.42;;;1.20;;
10201;SDS011;5143;42.584;23.164;2023-07-30T07:42:10;8.45;;;1.73;;
10201;SDS011;5143;42.584;23.164;2023-07-30T07:44:37;4.40;;;1.48;;
10201;SDS011;5143;42.584;23.164;2023-07-30T07:47:04;4.53;;;1.70;;
10201;SDS011;5143;42.584;23.164;2023-07-30T07:49:31;3.30;;;1.70;;
10201;SDS011;5143;42.584;23.164;2023-07-30T07:51:58;5.15;;;2.08;;
10201;SDS011;5143;42.584;23.164;2023-07-30T07:54:26;7.80;;;1.95;;
10201;SDS011;5143;42.584;23.164;2023-07-30T07:56:53;5.38;;;1.80;;
10201;SDS011;5143;42.584;23.164;2023-07-30T07:59:20;2.47;;;1.70;;
10201;SDS011;5143;42.584;23.164;2023-07-30T08:01:46;9.85;;;1.60;;
10201;SDS011;5143;42.584;23.164;2023-07-30T08:04:13;5.85;;;1.60;;
10201;SDS011;5143;42.584;23.164;2023-07-30T08:06:40;10.75;;;2.10;;
10201;SDS011;5143;42.584;23.164;2023-07-30T08:09:07;3.75;;;1.55;;
10201;SDS011;5143;42.584;23.164;2023-07-30T08:11:35;3.85;;;1.50;;
10201;SDS011;5143;42.584;23.164;2023-07-30T08:14:01;3.42;;;1.70;;
10201;SDS011;5143;42.584;23.164;2023-07-30T08:16:28;2.15;;;1.60;;
10201;SDS011;5143;42.584;23.164;2023-07-30T08:18:55;2.63;;;1.20;;
10201;SDS011;5143;42.584;23.164;2023-07-30T08:21:22;4.78;;;1.77;;
10201;SDS011;5143;42.584;23.164;2023-07-30T08:23:48;2.88;;;1.65;;
10201;SDS011;5143;42.584;23.164;2023-07-30T08:26:15;5.93;;;1.80;;
10201;SDS011;5143;42.584;23.164;2023-07-30T08:28:43;8.32;;;1.92;;
10201;SDS011;5143;42.584;23.164;2023-07-30T08:31:10;2.38;;;1.40;;
10201;SDS011;5143;42.584;23.164;2023-07-30T08:33:37;2.92;;;1.38;;
10201;SDS011;5143;42.584;23.164;2023-07-30T08:36:03;3.28;;;1.63;;
10201;SDS011;5143;42.584;23.164;2023-07-30T08:38:30;5.15;;;1.75;;
10201;SDS011;5143;42.584;23.164;2023-07-30T08:40:57;6.63;;;2.05;;
10201;SDS011;5143;42.584;23.164;2023-07-30T08:43:24;8.73;;;2.20;;
10201;SDS011;5143;42.584;23.164;2023-07-30T08:45:52;9.57;;;2.85;;
10201;SDS011;5143;42.584;23.164;2023-07-30T08:48:19;8.57;;;2.10;;
10201;SDS011;5143;42.584;23.164;2023-07-30T08:50:46;3.05;;;1.98;;
10201;SDS011;5143;42.584;23.164;2023-07-30T08:53:14;5.95;;;1.80;;
10201;SDS011;5143;42.584;23.164;2023-07-30T08:55:41;3.05;;;2.10;;
10201;SDS011;5143;42.584;23.164;2023-07-30T08:58:08;5.10;;;2.38;;
10201;SDS011;5143;42.584;23.164;2023-07-30T09:00:37;8.40;;;2.13;;
10201;SDS011;5143;42.584;23.164;2023-07-30T09:03:06;3.65;;;2.28;;
10201;SDS011;5143;42.584;23.164;2023-07-30T09:05:34;6.80;;;2.33;;
10201;SDS011;5143;42.584;23.164;2023-07-30T09:08:01;3.88;;;1.88;;
10201;SDS011;5143;42.584;23.164;2023-07-30T09:10:28;4.35;;;2.53;;
10201;SDS011;5143;42.584;23.164;2023-07-30T09:12:55;6.20;;;2.33;;
10201;SDS011;5143;42.584;23.164;2023-07-30T09:15:30;7.50;;;2.20;;
10201;SDS011;5143;42.584;23.164;2023-07-30T09:17:58;3.95;;;2.47;;
10201;SDS011;5143;42.584;23.164;2023-07-30T09:23:02;5.93;;;2.40;;
10201;SDS011;5143;42.584;23.164;2023-07-30T09:25:29;4.95;;;2.45;;
10201;SDS011;5143;42.584;23.164;2023-07-30T09:27:56;8.63;;;2.47;;
10201;SDS011;5143;42.584;23.164;2023-07-30T09:30:24;4.30;;;2.30;;
10201;SDS011;5143;42.584;23.164;2023-07-30T09:32:54;4.40;;;2.28;;
10201;SDS011;5143;42.584;23.164;2023-07-30T09:35:21;7.88;;;2.35;;
10201;SDS011;5143;42.584;23.164;2023-07-30T09:37:57;3.63;;;1.80;;
10201;SDS011;5143;42.584;23.164;2023-07-30T09:40:30;5.40;;;2.55;;
10201;SDS011;5143;42.584;23.164;2023-07-30T09:42:58;5.82;;;2.22;;
10201;SDS011;5143;42.584;23.164;2023-07-30T09:45:25;4.75;;;2.17;;
10201;SDS011;5143;42.584;23.164;2023-07-30T09:47:53;9.48;;;2.67;;
10201;SDS011;5143;42.584;23.164;2023-07-30T09:50:21;6.70;;;2.13;;
10201;SDS011;5143;42.584;23.164;2023-07-30T09:52:48;8.73;;;3.33;;
10201;SDS011;5143;42.584;23.164;2023-07-30T09:55:17;4.28;;;2.42;;
10201;SDS011;5143;42.584;23.164;2023-07-30T09:57:44;5.05;;;2.35;;
10201;SDS011;5143;42.584;23.164;2023-07-30T10:00:11;4.18;;;2.13;;
10201;SDS011;5143;42.584;23.164;2023-07-30T10:02:40;4.28;;;2.05;;
10201;SDS011;5143;42.584;23.164;2023-07-30T10:05:12;4.45;;;2.33;;
10201;SDS011;5143;42.584;23.164;2023-07-30T10:07:42;3.90;;;2.35;;
10201;SDS011;5143;42.584;23.164;2023-07-30T10:10:19;4.38;;;2.50;;
10201;SDS011;5143;42.584;23.164;2023-07-30T10:12:47;6.35;;;2.88;;
10201;SDS011;5143;42.584;23.164;2023-07-30T10:15:18;3.05;;;2.33;;
10201;SDS011;5143;42.584;23.164;2023-07-30T10:17:45;17.13;;;3.08;;
10201;SDS011;5143;42.584;23.164;2023-07-30T10:20:22;5.45;;;2.60;;
10201;SDS011;5143;42.584;23.164;2023-07-30T10:22:51;3.53;;;2.40;;
10201;SDS011;5143;42.584;23.164;2023-07-30T10:25:21;4.78;;;2.30;;
10201;SDS011;5143;42.584;23.164;2023-07-30T10:27:49;5.78;;;2.60;;
10201;SDS011;5143;42.584;23.164;2023-07-30T10:30:18;4.65;;;2.78;;
10201;SDS011;5143;42.584;23.164;2023-07-30T10:32:58;6.90;;;2.92;;
10201;SDS011;5143;42.584;23.164;2023-07-30T10:35:36;4.88;;;2.58;;
10201;SDS011;5143;42.584;23.164;2023-07-30T10:38:17;3.78;;;2.38;;
10201;SDS011;5143;42.584;23.164;2023-07-30T10:41:00;4.88;;;2.63;;
10201;SDS011;5143;42.584;23.164;2023-07-30T10:43:33;7.13;;;2.83;;
10201;SDS011;5143;42.584;23.164;2023-07-30T10:46:01;4.35;;;2.28;;
10201;SDS011;5143;42.584;23.164;2023-07-30T10:48:29;6.00;;;2.97;;
10201;SDS011;5143;42.584;23.164;2023-07-30T10:50:58;8.35;;;2.67;;
10201;SDS011;5143;42.584;23.164;2023-07-30T10:53:27;11.00;;;3.17;;
10201;SDS011;5143;42.584;23.164;2023-07-30T10:55:57;9.95;;;2.97;;
10201;SDS011;5143;42.584;23.164;2023-07-30T10:58:27;4.80;;;3.10;;
10201;SDS011;5143;42.584;23.164;2023-07-30T11:00:54;6.68;;;3.03;;
10201;SDS011;5143;42.584;23.164;2023-07-30T11:03:23;5.00;;;2.92;;
10201;SDS011;5143;42.584;23.164;2023-07-30T11:05:51;5.25;;;2.75;;
10201;SDS011;5143;42.584;23.164;2023-07-30T11:08:18;6.22;;;3.25;;
10201;SDS011;5143;42.584;23.164;2023-07-30T11:10:45;14.35;;;3.63;;
10201;SDS011;5143;42.584;23.164;2023-07-30T11:13:13;5.13;;;2.67;;
10201;SDS011;5143;42.584;23.164;2023-07-30T11:15:42;6.55;;;3.00;;
10201;SDS011;5143;42.584;23.164;2023-07-30T11:18:09;5.50;;;2.70;;
10201;SDS011;5143;42.584;23.164;2023-07-30T11:20:36;3.30;;;2.20;;
10201;SDS011;5143;42.584;23.164;2023-07-30T11:23:16;5.07;;;2.30;;
10201;SDS011;5143;42.584;23.164;2023-07-30T11:25:45;3.70;;;2.58;;
10201;SDS011;5143;42.584;23.164;2023-07-30T11:28:13;4.55;;;2.70;;
10201;SDS011;5143;42.584;23.164;2023-07-30T11:30:42;4.85;;;2.53;;
10201;SDS011;5143;42.584;23.164;2023-07-30T11:33:14;3.55;;;2.28;;
10201;SDS011;5143;42.584;23.164;2023-07-30T11:35:41;3.83;;;2.35;;
10201;SDS011;5143;42.584;23.164;2023-07-30T11:38:09;5.40;;;2.58;;
10201;SDS011;5143;42.584;23.164;2023-07-30T11:40:36;5.50;;;2.67;;
10201;SDS011;5143;42.584;23.164;2023-07-30T11:43:03;6.60;;;2.60;;
10201;SDS011;5143;42.584;23.164;2023-07-30T11:45:30;5.18;;;2.90;;
10201;SDS011;5143;42.584;23.164;2023-07-30T11:48:07;4.43;;;2.33;;
10201;SDS011;5143;42.584;23.164;2023-07-30T11:50:48;5.25;;;2.55;;
10201;SDS011;5143;42.584;23.164;2023-07-30T11:53:15;4.93;;;2.35;;
10201;SDS011;5143;42.584;23.164;2023-07-30T11:55:43;3.60;;;2.47;;
10201;SDS011;5143;42.584;23.164;2023-07-30T11:58:11;5.55;;;2.58;;
10201;SDS011;5143;42.584;23.164;2023-07-30T12:00:39;5.40;;;2.75;;
10201;SDS011;5143;42.584;23.164;2023-07-30T12:03:10;4.25;;;2.70;;
10201;SDS011;5143;42.584;23.164;2023-07-30T12:05:38;4.40;;;2.70;;
10201;SDS011;5143;42.584;23.164;2023-07-30T12:08:05;3.65;;;2.42;;
10201;SDS011;5143;42.584;23.164;2023-07-30T12:10:42;5.60;;;2.50;;
10201;SDS011;5143;42.584;23.164;2023-07-30T12:13:11;4.28;;;2.63;;
10201;SDS011;5143;42.584;23.164;2023-07-30T12:15:38;4.60;;;2.50;;
10201;SDS011;5143;42.584;23.164;2023-07-30T12:18:06;5.43;;;2.72;;
10201;SDS011;5143;42.584;23.164;2023-07-30T12:20:34;4.35;;;2.75;;
10201;SDS011;5143;42.584;23.164;2023-07-30T12:23:01;7.93;;;2.70;;
10201;SDS011;5143;42.584;23.164;2023-07-30T12:25:28;2.70;;;2.05;;
10201;SDS011;5143;42.584;23.164;2023-07-30T12:27:55;2.38;;;2.10;;
10201;SDS011;5143;42.584;23.164;2023-07-30T12:30:22;4.00;;;2.50;;
10201;SDS011;5143;42.584;23.164;2023-07-30T12:32:51;2.75;;;2.20;;
10201;SDS011;5143;42.584;23.164;2023-07-30T12:35:19;3.95;;;2.40;;
10201;SDS011;5143;42.584;23.164;2023-07-30T12:37:46;4.53;;;2.20;;
10201;SDS011;5143;42.584;23.164;2023-07-30T12:40:13;4.13;;;2.30;;
10201;SDS011;5143;42.584;23.164;2023-07-30T12:42:40;4.55;;;2.35;;
10201;SDS011;5143;42.584;23.164;2023-07-30T12:45:07;3.08;;;2.42;;
10201;SDS011;5143;42.584;23.164;2023-07-30T12:47:34;4.78;;;2.40;;
10201;SDS011;5143;42.584;23.164;2023-07-30T12:50:02;2.75;;;2.40;;
10201;SDS011;5143;42.584;23.164;2023-07-30T12:52:31;4.57;;;2.33;;
10201;SDS011;5143;42.584;23.164;2023-07-30T12:54:59;6.63;;;2.13;;
10201;SDS011;5143;42.584;23.164;2023-07-30T12:57:25;5.38;;;2.17;;
10201;SDS011;5143;42.584;23.164;2023-07-30T12:59:52;3.03;;;2.30;;
10201;SDS011;5143;42.584;23.164;2023-07-30T13:02:19;12.77;;;2.40;;
10201;SDS011;5143;42.584;23.164;2023-07-30T13:04:46;15.18;;;2.10;;
10201;SDS011;5143;42.584;23.164;2023-07-30T13:07:12;2.55;;;1.85;;
10201;SDS011;5143;42.584;23.164;2023-07-30T13:09:40;3.05;;;2.20;;
10201;SDS011;5143;42.584;23.164;2023-07-30T13:12:07;3.70;;;2.45;;
10201;SDS011;5143;42.584;23.164;2023-07-30T13:14:34;3.78;;;2.42;;
10201;SDS011;5143;42.584;23.164;2023-07-30T13:17:01;10.27;;;2.30;;
10201;SDS011;5143;42.584;23.164;2023-07-30T13:19:28;3.00;;;2.20;;
10201;SDS011;5143;42.584;23.164;2023-07-30T13:21:56;4.18;;;2.40;;
10201;SDS011;5143;42.584;23.164;2023-07-30T13:24:23;6.57;;;3.17;;
10201;SDS011;5143;42.584;23.164;2023-07-30T13:26:51;4.45;;;2.15;;
10201;SDS011;5143;42.584;23.164;2023-07-30T13:29:17;6.95;;;2.90;;
10201;SDS011;5143;42.584;23.164;2023-07-30T13:31:44;3.78;;;2.22;;
10201;SDS011;5143;42.584;23.164;2023-07-30T13:34:11;5.07;;;2.30;;
10201;SDS011;5143;42.584;23.164;2023-07-30T13:36:37;2.88;;;2.45;;
10201;SDS011;5143;42.584;23.164;2023-07-30T13:39:04;2.30;;;1.90;;
10201;SDS011;5143;42.584;23.164;2023-07-30T13:41:31;2.47;;;2.25;;
10201;SDS011;5143;42.584;23.164;2023-07-30T13:43:59;3.15;;;2.15;;
10201;SDS011;5143;42.584;23.164;2023-07-30T13:46:25;5.60;;;2.42;;
10201;SDS011;5143;42.584;23.164;2023-07-30T13:48:52;2.28;;;1.95;;
10201;SDS011;5143;42.584;23.164;2023-07-30T13:51:19;5.72;;;2.60;;
10201;SDS011;5143;42.584;23.164;2023-07-30T13:53:46;2.90;;;2.45;;
10201;SDS011;5143;42.584;23.164;2023-07-30T13:56:12;3.33;;;2.80;;
10201;SDS011;5143;42.584;23.164;2023-07-30T13:58:40;7.63;;;2.85;;
10201;SDS011;5143;42.584;23.164;2023-07-30T14:01:08;3.65;;;2.40;;
10201;SDS011;5143;42.584;23.164;2023-07-30T14:03:35;4.28;;;2.40;;
10201;SDS011;5143;42.584;23.164;2023-07-30T14:06:02;6.32;;;2.78;;
10201;SDS011;5143;42.584;23.164;2023-07-30T14:08:29;4.03;;;2.75;;
10201;SDS011;5143;42.584;23.164;2023-07-30T14:10:55;6.43;;;2.60;;
10201;SDS011;5143;42.584;23.164;2023-07-30T14:13:22;5.75;;;2.35;;
10201;SDS011;5143;42.584;23.164;2023-07-30T14:15:49;5.70;;;2.80;;
10201;SDS011;5143;42.584;23.164;2023-07-30T14:18:18;5.63;;;2.75;;
10201;SDS011;5143;42.584;23.164;2023-07-30T14:20:44;9.57;;;2.70;;
10201;SDS011;5143;42.584;23.164;2023-07-30T14:23:11;8.05;;;2.90;;
10201;SDS011;5143;42.584;23.164;2023-07-30T14:25:38;7.57;;;2.38;;
10201;SDS011;5143;42.584;23.164;2023-07-30T14:28:05;3.92;;;2.50;;
10201;SDS011;5143;42.584;23.164;2023-07-30T14:30:32;4.72;;;2.60;;
10201;SDS011;5143;42.584;23.164;2023-07-30T14:32:59;7.07;;;2.60;;
10201;SDS011;5143;42.584;23.164;2023-07-30T14:35:27;2.97;;;2.10;;
10201;SDS011;5143;42.584;23.164;2023-07-30T14:37:54;2.85;;;2.30;;
10201;SDS011;5143;42.584;23.164;2023-07-30T14:40:21;7.63;;;2.60;;
10201;SDS011;5143;42.584;23.164;2023-07-30T14:42:48;5.03;;;2.30;;
10201;SDS011;5143;42.584;23.164;2023-07-30T14:45:14;5.20;;;2.55;;
10201;SDS011;5143;42.584;23.164;2023-07-30T14:47:41;5.18;;;3.17;;
10201;SDS011;5143;42.584;23.164;2023-07-30T14:50:08;4.20;;;3.00;;
10201;SDS011;5143;42.584;23.164;2023-07-30T14:52:37;7.72;;;2.78;;